sensor_id;sensor_type;location;lat;lon;timestamp;P1;durP1;ratioP1;P2;durP2;ratioP2
34988;SDS011;21192;40.182;44.516;2023-02-13T00:01:21;58.80;;;30.77;;
34988;SDS011;21192;40.182;44.516;2023-02-13T00:03:47;57.63;;;30.92;;
34988;SDS011;21192;40.182;44.516;2023-02-13T00:06:13;57.30;;;28.65;;
34988;SDS011;21192;40.182;44.516;2023-02-13T00:08:39;54.00;;;30.15;;
34988;SDS011;21192;40.182;44.516;2023-02-13T00:11:05;65.57;;;30.80;;
34988;SDS011;21192;40.182;44.516;2023-02-13T00:13:32;59.53;;;32.08;;
34988;SDS011;21192;40.182;44.516;2023-02-13T00:15:59;56.60;;;32.17;;
34988;SDS011;21192;40.182;44.516;2023-02-13T00:18:27;63.55;;;32.78;;
34988;SDS011;21192;40.182;44.516;2023-02-13T00:20:57;62.05;;;32.40;;
34988;SDS011;21192;40.182;44.516;2023-02-13T00:23:24;59.53;;;33.70;;
34988;SDS011;21192;40.182;44.516;2023-02-13T00:25:50;58.13;;;32.90;;
34988;SDS011;21192;40.182;44.516;2023-02-13T00:28:15;59.83;;;31.77;;
34988;SDS011;21192;40.182;44.516;2023-02-13T00:30:41;63.25;;;33.08;;
34988;SDS011;21192;40.182;44.516;2023-02-13T00:33:07;55.17;;;32.80;;
34988;SDS011;21192;40.182;44.516;2023-02-13T00:35:33;69.88;;;33.97;;
34988;SDS011;21192;40.182;44.516;2023-02-13T00:37:59;62.22;;;34.70;;
34988;SDS011;21192;40.182;44.516;2023-02-13T00:40:25;62.15;;;34.05;;
34988;SDS011;21192;40.182;44.516;2023-02-13T00:42:51;61.97;;;34.45;;
34988;SDS011;21192;40.182;44.516;2023-02-13T00:45:17;67.40;;;34.90;;
34988;SDS011;21192;40.182;44.516;2023-02-13T00:47:43;57.50;;;32.30;;
34988;SDS011;21192;40.182;44.516;2023-02-13T00:50:08;59.83;;;31.92;;
34988;SDS011;21192;40.182;44.516;2023-02-13T00:52:35;57.63;;;32.13;;
34988;SDS011;21192;40.182;44.516;2023-02-13T00:55:00;54.75;;;29.58;;
34988;SDS011;21192;40.182;44.516;2023-02-13T00:57:26;63.45;;;32.40;;
34988;SDS011;21192;40.182;44.516;2023-02-13T00:59:53;59.92;;;29.77;;
34988;SDS011;21192;40.182;44.516;2023-02-13T01:02:19;38.85;;;23.77;;
34988;SDS011;21192;40.182;44.516;2023-02-13T01:04:44;40.38;;;23.10;;
34988;SDS011;21192;40.182;44.516;2023-02-13T01:07:10;33.78;;;22.13;;
34988;SDS011;21192;40.182;44.516;2023-02-13T01:09:36;42.55;;;21.58;;
34988;SDS011;21192;40.182;44.516;2023-02-13T01:12:02;37.55;;;20.80;;
34988;SDS011;21192;40.182;44.516;2023-02-13T01:14:28;36.25;;;20.70;;
34988;SDS011;21192;40.182;44.516;2023-02-13T01:16:53;33.97;;;20.77;;
34988;SDS011;21192;40.182;44.516;2023-02-13T01:19:19;36.55;;;21.13;;
34988;SDS011;21192;40.182;44.516;2023-02-13T01:21:45;34.95;;;21.90;;
34988;SDS011;21192;40.182;44.516;2023-02-13T01:24:11;35.55;;;20.10;;
34988;SDS011;21192;40.182;44.516;2023-02-13T01:26:36;38.03;;;21.05;;
34988;SDS011;21192;40.182;44.516;2023-02-13T01:29:02;39.17;;;21.35;;
34988;SDS011;21192;40.182;44.516;2023-02-13T01:31:28;35.08;;;20.80;;
34988;SDS011;21192;40.182;44.516;2023-02-13T01:33:55;36.15;;;21.25;;
34988;SDS011;21192;40.182;44.516;2023-02-13T01:36:22;36.03;;;21.73;;
34988;SDS011;21192;40.182;44.516;2023-02-13T01:38:50;34.53;;;21.27;;
34988;SDS011;21192;40.182;44.516;2023-02-13T01:41:17;36.05;;;21.77;;
34988;SDS011;21192;40.182;44.516;2023-02-13T01:43:56;39.58;;;20.25;;
34988;SDS011;21192;40.182;44.516;2023-02-13T01:49:08;48.70;;;26.55;;
34988;SDS011;21192;40.182;44.516;2023-02-13T01:51:48;57.00;;;29.90;;
34988;SDS011;21192;40.182;44.516;2023-02-13T01:54:25;59.30;;;28.55;;
34988;SDS011;21192;40.182;44.516;2023-02-13T01:56:58;56.53;;;31.17;;
34988;SDS011;21192;40.182;44.516;2023-02-13T01:59:31;60.50;;;30.20;;
34988;SDS011;21192;40.182;44.516;2023-02-13T02:02:17;69.53;;;33.50;;
34988;SDS011;21192;40.182;44.516;2023-02-13T02:04:44;69.05;;;34.55;;
34988;SDS011;21192;40.182;44.516;2023-02-13T02:07:25;63.75;;;33.65;;
34988;SDS011;21192;40.182;44.516;2023-02-13T02:09:55;58.67;;;32.25;;
34988;SDS011;21192;40.182;44.516;2023-02-13T02:12:35;59.28;;;32.33;;
34988;SDS011;21192;40.182;44.516;2023-02-13T02:15:09;58.22;;;31.23;;
34988;SDS011;21192;40.182;44.516;2023-02-13T02:17:35;57.60;;;32.33;;
34988;SDS011;21192;40.182;44.516;2023-02-13T02:23:12;53.72;;;31.10;;
34988;SDS011;21192;40.182;44.516;2023-02-13T02:28:56;54.83;;;30.25;;
34988;SDS011;21192;40.182;44.516;2023-02-13T02:34:21;59.33;;;32.25;;
34988;SDS011;21192;40.182;44.516;2023-02-13T02:42:08;61.85;;;31.50;;
34988;SDS011;21192;40.182;44.516;2023-02-13T02:50:34;59.55;;;30.27;;
34988;SDS011;21192;40.182;44.516;2023-02-13T02:59:03;48.45;;;28.25;;
34988;SDS011;21192;40.182;44.516;2023-02-13T03:01:54;51.20;;;28.90;;
34988;SDS011;21192;40.182;44.516;2023-02-13T03:04:41;61.22;;;28.70;;
34988;SDS011;21192;40.182;44.516;2023-02-13T03:07:37;56.42;;;29.20;;
34988;SDS011;21192;40.182;44.516;2023-02-13T03:10:04;54.80;;;29.02;;
34988;SDS011;21192;40.182;44.516;2023-02-13T03:13:03;58.35;;;30.77;;
34988;SDS011;21192;40.182;44.516;2023-02-13T03:15:46;51.58;;;29.40;;
34988;SDS011;21192;40.182;44.516;2023-02-13T03:18:35;59.65;;;30.98;;
34988;SDS011;21192;40.182;44.516;2023-02-13T03:24:35;56.83;;;28.95;;
34988;SDS011;21192;40.182;44.516;2023-02-13T03:29:57;54.92;;;28.83;;
34988;SDS011;21192;40.182;44.516;2023-02-13T03:38:21;47.97;;;26.60;;
34988;SDS011;21192;40.182;44.516;2023-02-13T03:40:50;53.35;;;28.20;;
34988;SDS011;21192;40.182;44.516;2023-02-13T03:43:49;52.30;;;27.35;;
34988;SDS011;21192;40.182;44.516;2023-02-13T03:46:27;55.67;;;27.15;;
34988;SDS011;21192;40.182;44.516;2023-02-13T03:48:58;60.78;;;29.70;;
34988;SDS011;21192;40.182;44.516;2023-02-13T03:52:01;47.90;;;27.98;;
34988;SDS011;21192;40.182;44.516;2023-02-13T03:54:57;56.70;;;27.05;;
34988;SDS011;21192;40.182;44.516;2023-02-13T03:57:43;50.03;;;28.08;;
34988;SDS011;21192;40.182;44.516;2023-02-13T04:00:33;55.13;;;30.13;;
34988;SDS011;21192;40.182;44.516;2023-02-13T04:03:10;51.47;;;27.23;;
34988;SDS011;21192;40.182;44.516;2023-02-13T04:05:46;53.70;;;26.58;;
34988;SDS011;21192;40.182;44.516;2023-02-13T04:08:15;62.20;;;25.67;;
34988;SDS011;21192;40.182;44.516;2023-02-13T04:10:45;44.53;;;25.92;;
34988;SDS011;21192;40.182;44.516;2023-02-13T04:13:23;49.83;;;25.08;;
34988;SDS011;21192;40.182;44.516;2023-02-13T04:16:45;41.13;;;22.85;;
34988;SDS011;21192;40.182;44.516;2023-02-13T04:18:51;47.03;;;23.55;;
34988;SDS011;21192;40.182;44.516;2023-02-13T04:21:19;42.47;;;23.17;;
34988;SDS011;21192;40.182;44.516;2023-02-13T04:23:45;51.20;;;23.60;;
34988;SDS011;21192;40.182;44.516;2023-02-13T04:26:13;45.58;;;23.63;;
34988;SDS011;21192;40.182;44.516;2023-02-13T04:28:44;47.45;;;23.65;;
34988;SDS011;21192;40.182;44.516;2023-02-13T04:31:10;43.78;;;23.80;;
34988;SDS011;21192;40.182;44.516;2023-02-13T04:33:36;46.35;;;24.17;;
34988;SDS011;21192;40.182;44.516;2023-02-13T04:36:02;44.35;;;24.85;;
34988;SDS011;21192;40.182;44.516;2023-02-13T04:38:28;42.70;;;24.50;;
34988;SDS011;21192;40.182;44.516;2023-02-13T04:40:54;51.13;;;29.23;;
34988;SDS011;21192;40.182;44.516;2023-02-13T04:43:20;67.03;;;35.20;;
34988;SDS011;21192;40.182;44.516;2023-02-13T04:45:47;70.35;;;37.35;;
34988;SDS011;21192;40.182;44.516;2023-02-13T04:48:13;66.90;;;38.47;;
34988;SDS011;21192;40.182;44.516;2023-02-13T04:50:39;79.10;;;42.70;;
34988;SDS011;21192;40.182;44.516;2023-02-13T04:53:05;74.93;;;40.17;;
34988;SDS011;21192;40.182;44.516;2023-02-13T04:55:31;71.63;;;41.00;;
34988;SDS011;21192;40.182;44.516;2023-02-13T04:57:57;73.82;;;40.90;;
34988;SDS011;21192;40.182;44.516;2023-02-13T05:00:23;75.65;;;41.53;;
34988;SDS011;21192;40.182;44.516;2023-02-13T05:02:51;76.38;;;42.63;;
34988;SDS011;21192;40.182;44.516;2023-02-13T05:05:17;77.57;;;43.65;;
34988;SDS011;21192;40.182;44.516;2023-02-13T05:07:44;110.15;;;71.63;;
34988;SDS011;21192;40.182;44.516;2023-02-13T05:10:10;76.60;;;44.83;;
34988;SDS011;21192;40.182;44.516;2023-02-13T05:12:36;76.28;;;44.65;;
34988;SDS011;21192;40.182;44.516;2023-02-13T05:15:03;76.47;;;42.95;;
34988;SDS011;21192;40.182;44.516;2023-02-13T05:17:29;74.10;;;45.45;;
34988;SDS011;21192;40.182;44.516;2023-02-13T05:19:56;98.57;;;73.38;;
34988;SDS011;21192;40.182;44.516;2023-02-13T05:22:23;86.07;;;68.65;;
34988;SDS011;21192;40.182;44.516;2023-02-13T05:25:07;87.90;;;64.63;;
34988;SDS011;21192;40.182;44.516;2023-02-13T05:27:33;78.90;;;63.80;;
34988;SDS011;21192;40.182;44.516;2023-02-13T05:29:59;88.22;;;68.97;;
34988;SDS011;21192;40.182;44.516;2023-02-13T05:32:24;90.53;;;72.55;;
34988;SDS011;21192;40.182;44.516;2023-02-13T05:34:50;70.68;;;51.95;;
34988;SDS011;21192;40.182;44.516;2023-02-13T05:37:16;61.35;;;43.17;;
34988;SDS011;21192;40.182;44.516;2023-02-13T05:39:42;75.88;;;49.33;;
34988;SDS011;21192;40.182;44.516;2023-02-13T05:42:08;69.25;;;43.05;;
34988;SDS011;21192;40.182;44.516;2023-02-13T05:44:34;62.70;;;40.70;;
34988;SDS011;21192;40.182;44.516;2023-02-13T05:47:00;65.43;;;39.65;;
34988;SDS011;21192;40.182;44.516;2023-02-13T05:49:26;57.70;;;36.30;;
34988;SDS011;21192;40.182;44.516;2023-02-13T05:51:52;57.03;;;34.15;;
34988;SDS011;21192;40.182;44.516;2023-02-13T05:54:18;59.45;;;40.65;;
34988;SDS011;21192;40.182;44.516;2023-02-13T05:56:44;53.10;;;37.92;;
34988;SDS011;21192;40.182;44.516;2023-02-13T05:59:10;57.13;;;38.33;;
34988;SDS011;21192;40.182;44.516;2023-02-13T06:01:36;55.78;;;37.25;;
34988;SDS011;21192;40.182;44.516;2023-02-13T06:04:02;51.10;;;37.65;;
34988;SDS011;21192;40.182;44.516;2023-02-13T06:06:27;53.30;;;38.50;;
34988;SDS011;21192;40.182;44.516;2023-02-13T06:08:53;56.42;;;39.17;;
34988;SDS011;21192;40.182;44.516;2023-02-13T06:11:19;61.58;;;44.10;;
34988;SDS011;21192;40.182;44.516;2023-02-13T06:13:45;59.55;;;42.05;;
34988;SDS011;21192;40.182;44.516;2023-02-13T06:16:11;59.25;;;39.28;;
34988;SDS011;21192;40.182;44.516;2023-02-13T06:18:37;52.00;;;36.85;;
34988;SDS011;21192;40.182;44.516;2023-02-13T06:21:04;58.40;;;42.97;;
34988;SDS011;21192;40.182;44.516;2023-02-13T06:23:30;57.33;;;39.90;;
34988;SDS011;21192;40.182;44.516;2023-02-13T06:25:56;64.18;;;45.85;;
34988;SDS011;21192;40.182;44.516;2023-02-13T06:28:25;56.05;;;42.58;;
34988;SDS011;21192;40.182;44.516;2023-02-13T06:30:51;50.28;;;37.83;;
34988;SDS011;21192;40.182;44.516;2023-02-13T06:33:17;49.63;;;38.58;;
34988;SDS011;21192;40.182;44.516;2023-02-13T06:35:43;64.43;;;45.22;;
34988;SDS011;21192;40.182;44.516;2023-02-13T06:38:09;53.15;;;38.58;;
34988;SDS011;21192;40.182;44.516;2023-02-13T06:40:34;64.40;;;40.85;;
34988;SDS011;21192;40.182;44.516;2023-02-13T06:43:00;58.35;;;39.47;;
34988;SDS011;21192;40.182;44.516;2023-02-13T06:45:26;56.38;;;39.50;;
34988;SDS011;21192;40.182;44.516;2023-02-13T06:47:52;55.60;;;38.75;;
34988;SDS011;21192;40.182;44.516;2023-02-13T06:50:18;59.03;;;40.30;;
34988;SDS011;21192;40.182;44.516;2023-02-13T06:52:48;59.13;;;43.63;;
34988;SDS011;21192;40.182;44.516;2023-02-13T06:55:14;72.60;;;52.58;;
34988;SDS011;21192;40.182;44.516;2023-02-13T06:57:42;62.13;;;43.40;;
34988;SDS011;21192;40.182;44.516;2023-02-13T07:00:08;62.45;;;41.97;;
34988;SDS011;21192;40.182;44.516;2023-02-13T07:02:37;65.68;;;46.45;;
34988;SDS011;21192;40.182;44.516;2023-02-13T07:05:04;77.15;;;46.58;;
34988;SDS011;21192;40.182;44.516;2023-02-13T07:07:34;62.75;;;44.17;;
34988;SDS011;21192;40.182;44.516;2023-02-13T07:10:02;66.78;;;41.78;;
34988;SDS011;21192;40.182;44.516;2023-02-13T07:12:28;69.90;;;45.03;;
34988;SDS011;21192;40.182;44.516;2023-02-13T07:14:56;75.78;;;42.50;;
34988;SDS011;21192;40.182;44.516;2023-02-13T07:17:22;78.50;;;48.72;;
34988;SDS011;21192;40.182;44.516;2023-02-13T07:19:48;70.28;;;43.15;;
34988;SDS011;21192;40.182;44.516;2023-02-13T07:22:13;83.40;;;57.58;;
34988;SDS011;21192;40.182;44.516;2023-02-13T07:24:39;75.35;;;49.67;;
34988;SDS011;21192;40.182;44.516;2023-02-13T07:27:05;69.97;;;45.90;;
34988;SDS011;21192;40.182;44.516;2023-02-13T07:29:31;60.72;;;37.53;;
34988;SDS011;21192;40.182;44.516;2023-02-13T07:31:57;56.22;;;34.65;;
34988;SDS011;21192;40.182;44.516;2023-02-13T07:34:22;54.67;;;36.00;;
34988;SDS011;21192;40.182;44.516;2023-02-13T07:36:48;58.08;;;36.33;;
34988;SDS011;21192;40.182;44.516;2023-02-13T07:39:14;58.20;;;39.42;;
34988;SDS011;21192;40.182;44.516;2023-02-13T07:41:40;59.40;;;41.65;;
34988;SDS011;21192;40.182;44.516;2023-02-13T07:44:05;63.35;;;40.97;;
34988;SDS011;21192;40.182;44.516;2023-02-13T07:46:31;99.10;;;64.28;;
34988;SDS011;21192;40.182;44.516;2023-02-13T07:48:57;77.90;;;46.05;;
34988;SDS011;21192;40.182;44.516;2023-02-13T07:51:23;60.55;;;37.15;;
34988;SDS011;21192;40.182;44.516;2023-02-13T07:53:50;54.67;;;36.05;;
34988;SDS011;21192;40.182;44.516;2023-02-13T07:56:16;59.03;;;36.72;;
34988;SDS011;21192;40.182;44.516;2023-02-13T07:58:43;61.05;;;39.55;;
34988;SDS011;21192;40.182;44.516;2023-02-13T08:01:09;86.68;;;45.10;;
34988;SDS011;21192;40.182;44.516;2023-02-13T08:03:37;60.28;;;37.10;;
34988;SDS011;21192;40.182;44.516;2023-02-13T08:06:03;51.88;;;34.40;;
34988;SDS011;21192;40.182;44.516;2023-02-13T08:08:30;61.33;;;36.95;;
34988;SDS011;21192;40.182;44.516;2023-02-13T08:10:56;54.30;;;35.95;;
34988;SDS011;21192;40.182;44.516;2023-02-13T08:13:45;56.63;;;35.80;;
34988;SDS011;21192;40.182;44.516;2023-02-13T08:16:11;58.50;;;35.42;;
34988;SDS011;21192;40.182;44.516;2023-02-13T08:18:37;61.17;;;37.70;;
34988;SDS011;21192;40.182;44.516;2023-02-13T08:21:03;53.28;;;34.15;;
34988;SDS011;21192;40.182;44.516;2023-02-13T08:23:29;53.97;;;35.38;;
34988;SDS011;21192;40.182;44.516;2023-02-13T08:25:57;56.75;;;35.80;;
34988;SDS011;21192;40.182;44.516;2023-02-13T08:28:24;55.70;;;32.45;;
34988;SDS011;21192;40.182;44.516;2023-02-13T08:30:50;53.80;;;32.67;;
34988;SDS011;21192;40.182;44.516;2023-02-13T08:33:16;56.55;;;32.63;;
34988;SDS011;21192;40.182;44.516;2023-02-13T08:35:42;50.38;;;30.50;;
34988;SDS011;21192;40.182;44.516;2023-02-13T08:38:08;50.83;;;31.00;;
34988;SDS011;21192;40.182;44.516;2023-02-13T08:40:34;50.28;;;29.60;;
34988;SDS011;21192;40.182;44.516;2023-02-13T08:43:00;44.50;;;29.45;;
34988;SDS011;21192;40.182;44.516;2023-02-13T08:45:27;43.20;;;28.33;;
34988;SDS011;21192;40.182;44.516;2023-02-13T08:47:56;47.60;;;28.60;;
34988;SDS011;21192;40.182;44.516;2023-02-13T08:50:23;40.03;;;26.48;;
34988;SDS011;21192;40.182;44.516;2023-02-13T08:52:49;42.30;;;25.73;;
34988;SDS011;21192;40.182;44.516;2023-02-13T08:55:15;44.35;;;28.38;;
34988;SDS011;21192;40.182;44.516;2023-02-13T08:57:41;45.67;;;28.60;;
34988;SDS011;21192;40.182;44.516;2023-02-13T09:00:07;42.58;;;28.33;;
34988;SDS011;21192;40.182;44.516;2023-02-13T09:02:33;41.63;;;27.42;;
34988;SDS011;21192;40.182;44.516;2023-02-13T09:04:59;45.92;;;28.15;;
34988;SDS011;21192;40.182;44.516;2023-02-13T09:07:25;38.70;;;26.60;;
34988;SDS011;21192;40.182;44.516;2023-02-13T09:09:50;40.42;;;26.30;;
34988;SDS011;21192;40.182;44.516;2023-02-13T09:12:16;46.70;;;28.48;;
34988;SDS011;21192;40.182;44.516;2023-02-13T09:14:42;42.80;;;28.17;;
34988;SDS011;21192;40.182;44.516;2023-02-13T09:17:08;52.13;;;35.70;;
34988;SDS011;21192;40.182;44.516;2023-02-13T09:19:34;48.05;;;30.92;;
34988;SDS011;21192;40.182;44.516;2023-02-13T09:21:59;45.35;;;29.20;;
34988;SDS011;21192;40.182;44.516;2023-02-13T09:24:25;46.50;;;28.42;;
34988;SDS011;21192;40.182;44.516;2023-02-13T09:26:51;46.50;;;30.98;;
34988;SDS011;21192;40.182;44.516;2023-02-13T09:29:17;42.45;;;28.20;;
34988;SDS011;21192;40.182;44.516;2023-02-13T09:31:43;43.92;;;27.23;;
34988;SDS011;21192;40.182;44.516;2023-02-13T09:34:09;44.30;;;28.80;;
34988;SDS011;21192;40.182;44.516;2023-02-13T09:36:34;41.92;;;28.17;;
34988;SDS011;21192;40.182;44.516;2023-02-13T09:39:00;39.85;;;26.55;;
34988;SDS011;21192;40.182;44.516;2023-02-13T09:41:27;40.70;;;25.65;;
34988;SDS011;21192;40.182;44.516;2023-02-13T09:43:57;42.13;;;27.30;;
34988;SDS011;21192;40.182;44.516;2023-02-13T09:46:31;40.33;;;24.55;;
34988;SDS011;21192;40.182;44.516;2023-02-13T09:48:58;42.97;;;26.25;;
34988;SDS011;21192;40.182;44.516;2023-02-13T09:51:30;42.40;;;25.92;;
34988;SDS011;21192;40.182;44.516;2023-02-13T09:54:00;35.83;;;24.48;;
34988;SDS011;21192;40.182;44.516;2023-02-13T09:56:36;40.72;;;24.35;;
34988;SDS011;21192;40.182;44.516;2023-02-13T10:01:54;33.90;;;22.20;;
34988;SDS011;21192;40.182;44.516;2023-02-13T10:06:59;37.17;;;24.88;;
34988;SDS011;21192;40.182;44.516;2023-02-13T10:09:39;43.42;;;24.52;;
34988;SDS011;21192;40.182;44.516;2023-02-13T10:15:26;34.13;;;21.60;;
34988;SDS011;21192;40.182;44.516;2023-02-13T10:18:05;38.28;;;22.45;;
34988;SDS011;21192;40.182;44.516;2023-02-13T10:20:40;33.85;;;21.83;;
34988;SDS011;21192;40.182;44.516;2023-02-13T10:23:15;42.72;;;24.25;;
34988;SDS011;21192;40.182;44.516;2023-02-13T10:25:58;33.83;;;22.17;;
34988;SDS011;21192;40.182;44.516;2023-02-13T10:28:28;35.28;;;22.60;;
34988;SDS011;21192;40.182;44.516;2023-02-13T10:31:06;35.97;;;21.83;;
34988;SDS011;21192;40.182;44.516;2023-02-13T10:33:38;46.45;;;26.85;;
34988;SDS011;21192;40.182;44.516;2023-02-13T10:38:37;35.45;;;20.05;;
34988;SDS011;21192;40.182;44.516;2023-02-13T10:41:21;40.50;;;21.80;;
34988;SDS011;21192;40.182;44.516;2023-02-13T11:03:22;36.45;;;21.45;;
34988;SDS011;21192;40.182;44.516;2023-02-13T11:05:49;36.08;;;21.48;;
34988;SDS011;21192;40.182;44.516;2023-02-13T11:10:51;37.53;;;21.60;;
34988;SDS011;21192;40.182;44.516;2023-02-13T11:13:18;32.72;;;20.70;;
34988;SDS011;21192;40.182;44.516;2023-02-13T11:18:21;43.65;;;25.83;;
34988;SDS011;21192;40.182;44.516;2023-02-13T11:21:35;74.75;;;29.13;;
34988;SDS011;21192;40.182;44.516;2023-02-13T11:23:49;44.58;;;25.48;;
34988;SDS011;21192;40.182;44.516;2023-02-13T11:26:20;46.22;;;25.67;;
34988;SDS011;21192;40.182;44.516;2023-02-13T11:28:54;50.72;;;26.83;;
34988;SDS011;21192;40.182;44.516;2023-02-13T11:33:55;49.53;;;26.25;;
34988;SDS011;21192;40.182;44.516;2023-02-13T11:36:30;59.08;;;27.70;;
34988;SDS011;21192;40.182;44.516;2023-02-13T11:39:12;53.60;;;30.85;;
34988;SDS011;21192;40.182;44.516;2023-02-13T11:41:43;44.60;;;25.98;;
34988;SDS011;21192;40.182;44.516;2023-02-13T11:44:21;62.75;;;28.88;;
34988;SDS011;21192;40.182;44.516;2023-02-13T11:46:49;58.35;;;24.38;;
34988;SDS011;21192;40.182;44.516;2023-02-13T11:49:27;44.15;;;20.85;;
34988;SDS011;21192;40.182;44.516;2023-02-13T11:52:00;50.20;;;23.58;;
34988;SDS011;21192;40.182;44.516;2023-02-13T11:59:50;53.05;;;25.55;;
34988;SDS011;21192;40.182;44.516;2023-02-13T12:02:23;51.03;;;23.02;;
34988;SDS011;21192;40.182;44.516;2023-02-13T12:05:14;36.15;;;20.17;;
34988;SDS011;21192;40.182;44.516;2023-02-13T12:07:41;40.67;;;21.20;;
34988;SDS011;21192;40.182;44.516;2023-02-13T12:15:31;27.00;;;16.10;;
34988;SDS011;21192;40.182;44.516;2023-02-13T12:20:34;24.00;;;15.60;;
34988;SDS011;21192;40.182;44.516;2023-02-13T12:39:53;25.35;;;14.15;;
34988;SDS011;21192;40.182;44.516;2023-02-13T12:45:09;27.30;;;16.52;;
34988;SDS011;21192;40.182;44.516;2023-02-13T12:50:30;35.78;;;17.60;;
34988;SDS011;21192;40.182;44.516;2023-02-13T13:01:29;38.50;;;22.23;;
34988;SDS011;21192;40.182;44.516;2023-02-13T13:04:22;36.95;;;19.60;;
34988;SDS011;21192;40.182;44.516;2023-02-13T13:23:20;36.50;;;19.27;;
34988;SDS011;21192;40.182;44.516;2023-02-13T13:26:00;34.90;;;17.85;;
34988;SDS011;21192;40.182;44.516;2023-02-13T13:28:46;31.50;;;18.88;;
34988;SDS011;21192;40.182;44.516;2023-02-13T13:31:16;30.52;;;18.17;;
34988;SDS011;21192;40.182;44.516;2023-02-13T13:33:45;29.30;;;18.50;;
34988;SDS011;21192;40.182;44.516;2023-02-13T13:39:00;24.15;;;16.13;;
34988;SDS011;21192;40.182;44.516;2023-02-13T13:47:23;35.67;;;19.05;;
34988;SDS011;21192;40.182;44.516;2023-02-13T13:50:19;32.60;;;17.60;;
34988;SDS011;21192;40.182;44.516;2023-02-13T13:58:45;31.10;;;18.73;;
34988;SDS011;21192;40.182;44.516;2023-02-13T14:03:45;30.02;;;17.70;;
34988;SDS011;21192;40.182;44.516;2023-02-13T14:11:55;34.78;;;21.40;;
34988;SDS011;21192;40.182;44.516;2023-02-13T14:16:57;48.38;;;22.25;;
34988;SDS011;21192;40.182;44.516;2023-02-13T14:19:31;38.45;;;21.40;;
34988;SDS011;21192;40.182;44.516;2023-02-13T14:24:48;40.30;;;23.20;;
34988;SDS011;21192;40.182;44.516;2023-02-13T14:27:21;42.60;;;23.85;;
34988;SDS011;21192;40.182;44.516;2023-02-13T14:29:55;33.90;;;21.35;;
34988;SDS011;21192;40.182;44.516;2023-02-13T14:35:34;41.78;;;20.65;;
34988;SDS011;21192;40.182;44.516;2023-02-13T14:37:37;40.13;;;22.42;;
34988;SDS011;21192;40.182;44.516;2023-02-13T14:40:25;52.67;;;26.95;;
34988;SDS011;21192;40.182;44.516;2023-02-13T14:45:46;45.70;;;25.10;;
34988;SDS011;21192;40.182;44.516;2023-02-13T14:48:19;44.42;;;24.95;;
34988;SDS011;21192;40.182;44.516;2023-02-13T14:50:52;43.85;;;25.02;;
34988;SDS011;21192;40.182;44.516;2023-02-13T14:56:04;38.33;;;23.33;;
34988;SDS011;21192;40.182;44.516;2023-02-13T14:58:36;44.83;;;24.80;;
34988;SDS011;21192;40.182;44.516;2023-02-13T15:01:29;45.45;;;22.25;;
34988;SDS011;21192;40.182;44.516;2023-02-13T15:06:42;44.20;;;23.67;;
34988;SDS011;21192;40.182;44.516;2023-02-13T15:12:03;42.97;;;24.35;;
34988;SDS011;21192;40.182;44.516;2023-02-13T15:14:47;39.60;;;21.63;;
34988;SDS011;21192;40.182;44.516;2023-02-13T15:17:14;36.25;;;20.30;;
34988;SDS011;21192;40.182;44.516;2023-02-13T15:19:46;44.03;;;22.95;;
34988;SDS011;21192;40.182;44.516;2023-02-13T15:22:18;40.90;;;21.27;;
34988;SDS011;21192;40.182;44.516;2023-02-13T15:25:04;44.25;;;21.83;;
34988;SDS011;21192;40.182;44.516;2023-02-13T15:27:34;41.33;;;21.60;;
34988;SDS011;21192;40.182;44.516;2023-02-13T15:32:44;36.50;;;20.05;;
34988;SDS011;21192;40.182;44.516;2023-02-13T15:37:50;50.42;;;25.88;;
34988;SDS011;21192;40.182;44.516;2023-02-13T15:40:24;41.03;;;20.90;;
34988;SDS011;21192;40.182;44.516;2023-02-13T15:42:55;42.85;;;21.45;;
34988;SDS011;21192;40.182;44.516;2023-02-13T15:45:22;40.67;;;22.95;;
34988;SDS011;21192;40.182;44.516;2023-02-13T15:47:50;31.45;;;19.00;;
34988;SDS011;21192;40.182;44.516;2023-02-13T15:50:33;41.22;;;22.42;;
34988;SDS011;21192;40.182;44.516;2023-02-13T15:53:01;48.90;;;22.17;;
34988;SDS011;21192;40.182;44.516;2023-02-13T15:55:30;45.25;;;22.75;;
34988;SDS011;21192;40.182;44.516;2023-02-13T15:57:58;39.97;;;20.90;;
34988;SDS011;21192;40.182;44.516;2023-02-13T16:00:30;39.30;;;20.92;;
34988;SDS011;21192;40.182;44.516;2023-02-13T16:03:02;42.17;;;19.25;;
34988;SDS011;21192;40.182;44.516;2023-02-13T16:05:32;52.80;;;27.88;;
34988;SDS011;21192;40.182;44.516;2023-02-13T16:08:19;45.20;;;22.10;;
34988;SDS011;21192;40.182;44.516;2023-02-13T16:10:48;38.22;;;20.05;;
34988;SDS011;21192;40.182;44.516;2023-02-13T16:13:15;43.45;;;19.98;;
34988;SDS011;21192;40.182;44.516;2023-02-13T16:15:42;37.05;;;19.40;;
34988;SDS011;21192;40.182;44.516;2023-02-13T16:18:16;32.67;;;19.05;;
34988;SDS011;21192;40.182;44.516;2023-02-13T16:20:44;33.80;;;18.10;;
34988;SDS011;21192;40.182;44.516;2023-02-13T16:23:14;34.95;;;16.92;;
34988;SDS011;21192;40.182;44.516;2023-02-13T16:25:44;33.63;;;16.80;;
34988;SDS011;21192;40.182;44.516;2023-02-13T16:28:18;34.55;;;17.77;;
34988;SDS011;21192;40.182;44.516;2023-02-13T16:30:51;34.08;;;17.80;;
34988;SDS011;21192;40.182;44.516;2023-02-13T16:33:27;33.78;;;15.48;;
34988;SDS011;21192;40.182;44.516;2023-02-13T16:38:38;45.47;;;19.92;;
34988;SDS011;21192;40.182;44.516;2023-02-13T16:41:05;48.65;;;20.70;;
34988;SDS011;21192;40.182;44.516;2023-02-13T16:43:51;39.20;;;19.92;;
34988;SDS011;21192;40.182;44.516;2023-02-13T16:46:19;40.22;;;18.95;;
34988;SDS011;21192;40.182;44.516;2023-02-13T16:48:46;31.55;;;16.10;;
34988;SDS011;21192;40.182;44.516;2023-02-13T16:56:36;31.08;;;14.93;;
34988;SDS011;21192;40.182;44.516;2023-02-13T17:02:06;30.33;;;14.10;;
34988;SDS011;21192;40.182;44.516;2023-02-13T17:07:34;31.02;;;14.45;;
34988;SDS011;21192;40.182;44.516;2023-02-13T17:11:00;33.75;;;13.77;;
34988;SDS011;21192;40.182;44.516;2023-02-13T17:12:54;30.33;;;13.95;;
34988;SDS011;21192;40.182;44.516;2023-02-13T17:15:24;30.95;;;13.48;;
34988;SDS011;21192;40.182;44.516;2023-02-13T17:17:52;29.83;;;12.88;;
34988;SDS011;21192;40.182;44.516;2023-02-13T17:20:22;32.85;;;12.77;;
34988;SDS011;21192;40.182;44.516;2023-02-13T17:22:57;43.78;;;17.88;;
34988;SDS011;21192;40.182;44.516;2023-02-13T17:25:25;31.83;;;14.48;;
34988;SDS011;21192;40.182;44.516;2023-02-13T17:27:54;34.45;;;14.88;;
34988;SDS011;21192;40.182;44.516;2023-02-13T17:30:23;39.95;;;19.10;;
34988;SDS011;21192;40.182;44.516;2023-02-13T17:32:53;33.45;;;15.13;;
34988;SDS011;21192;40.182;44.516;2023-02-13T17:35:23;31.77;;;15.85;;
34988;SDS011;21192;40.182;44.516;2023-02-13T17:37:49;36.50;;;17.63;;
34988;SDS011;21192;40.182;44.516;2023-02-13T17:40:16;30.42;;;13.52;;
34988;SDS011;21192;40.182;44.516;2023-02-13T17:42:45;30.70;;;14.50;;
34988;SDS011;21192;40.182;44.516;2023-02-13T17:45:16;33.10;;;13.93;;
34988;SDS011;21192;40.182;44.516;2023-02-13T17:47:43;31.38;;;13.27;;